sensor_id;sensor_type;location;lat;lon;timestamp;pressure;altitude;pressure_sealevel;temperature;humidity
33265;BME280;31404;53.974;-1.086;2023-10-09T00:00:35;101861.13;;;18.21;92.25
33265;BME280;31404;53.974;-1.086;2023-10-09T00:05:35;101854.77;;;18.08;92.12
33265;BME280;31404;53.974;-1.086;2023-10-09T00:10:34;101857.79;;;17.44;95.98
33265;BME280;31404;53.974;-1.086;2023-10-09T00:15:34;101852.13;;;15.48;100.00
33265;BME280;31404;53.974;-1.086;2023-10-09T00:20:36;101842.16;;;16.35;100.00
33265;BME280;31404;53.974;-1.086;2023-10-09T00:25:34;101829.67;;;16.48;100.00
33265;BME280;31404;53.974;-1.086;2023-10-09T00:30:35;101834.39;;;16.28;100.00
33265;BME280;31404;53.974;-1.086;2023-10-09T00:35:37;101850.95;;;16.10;100.00
33265;BME280;31404;53.974;-1.086;2023-10-09T00:40:34;101876.29;;;16.18;100.00
33265;BME280;31404;53.974;-1.086;2023-10-09T00:45:35;101885.91;;;16.28;100.00
33265;BME280;31404;53.974;-1.086;2023-10-09T00:50:35;101887.59;;;17.68;97.30
33265;BME280;31404;53.974;-1.086;2023-10-09T00:55:34;101874.13;;;19.52;87.10
33265;BME280;31404;53.974;-1.086;2023-10-09T01:00:34;101869.74;;;20.01;84.32
33265;BME280;31404;53.974;-1.086;2023-10-09T01:05:35;101883.35;;;19.82;84.34
33265;BME280;31404;53.974;-1.086;2023-10-09T01:15:34;101849.25;;;16.73;100.00
33265;BME280;31404;53.974;-1.086;2023-10-09T01:20:35;101831.70;;;16.09;100.00
33265;BME280;31404;53.974;-1.086;2023-10-09T01:25:35;101820.90;;;14.59;100.00
33265;BME280;31404;53.974;-1.086;2023-10-09T01:30:34;101843.74;;;14.50;100.00
33265;BME280;31404;53.974;-1.086;2023-10-09T01:35:34;101856.79;;;15.48;100.00
33265;BME280;31404;53.974;-1.086;2023-10-09T01:40:34;101873.34;;;13.55;100.00
33265;BME280;31404;53.974;-1.086;2023-10-09T01:45:34;101857.17;;;14.09;100.00
33265;BME280;31404;53.974;-1.086;2023-10-09T01:50:34;101845.19;;;15.54;100.00
33265;BME280;31404;53.974;-1.086;2023-10-09T01:55:35;101872.36;;;15.73;100.00
33265;BME280;31404;53.974;-1.086;2023-10-09T02:00:34;101878.69;;;16.77;100.00
33265;BME280;31404;53.974;-1.086;2023-10-09T02:05:34;101847.04;;;17.44;100.00
33265;BME280;31404;53.974;-1.086;2023-10-09T02:10:34;101846.36;;;18.72;96.67
33265;BME280;31404;53.974;-1.086;2023-10-09T02:15:36;101830.24;;;19.61;91.23
33265;BME280;31404;53.974;-1.086;2023-10-09T02:20:34;101808.71;;;19.89;88.33
33265;BME280;31404;53.974;-1.086;2023-10-09T02:25:34;101814.48;;;19.01;91.74
33265;BME280;31404;53.974;-1.086;2023-10-09T02:30:35;101808.32;;;17.49;100.00
33265;BME280;31404;53.974;-1.086;2023-10-09T02:35:35;101801.04;;;16.64;100.00
33265;BME280;31404;53.974;-1.086;2023-10-09T02:40:35;101796.75;;;19.02;93.65
33265;BME280;31404;53.974;-1.086;2023-10-09T02:45:35;101772.63;;;17.31;100.00
33265;BME280;31404;53.974;-1.086;2023-10-09T02:50:35;101786.99;;;19.08;94.31
33265;BME280;31404;53.974;-1.086;2023-10-09T02:55:35;101805.90;;;20.23;87.92
33265;BME280;31404;53.974;-1.086;2023-10-09T03:00:35;101810.93;;;19.10;91.73
33265;BME280;31404;53.974;-1.086;2023-10-09T03:05:35;101819.09;;;19.55;91.23
33265;BME280;31404;53.974;-1.086;2023-10-09T03:10:34;101838.41;;;20.02;87.95
33265;BME280;31404;53.974;-1.086;2023-10-09T03:15:35;101822.99;;;20.24;86.30
33265;BME280;31404;53.974;-1.086;2023-10-09T03:20:34;101837.23;;;19.50;90.80
33265;BME280;31404;53.974;-1.086;2023-10-09T03:25:34;101816.61;;;19.59;90.37
33265;BME280;31404;53.974;-1.086;2023-10-09T03:30:34;101825.67;;;20.19;87.96
33265;BME280;31404;53.974;-1.086;2023-10-09T03:35:35;101825.76;;;20.56;85.53
33265;BME280;31404;53.974;-1.086;2023-10-09T03:40:35;101809.61;;;18.12;98.82
33265;BME280;31404;53.974;-1.086;2023-10-09T03:45:35;101814.02;;;17.76;100.00
33265;BME280;31404;53.974;-1.086;2023-10-09T03:50:35;101822.35;;;18.21;100.00
33265;BME280;31404;53.974;-1.086;2023-10-09T03:55:35;101819.48;;;19.89;91.26
33265;BME280;31404;53.974;-1.086;2023-10-09T04:00:34;101842.37;;;20.44;88.01
33265;BME280;31404;53.974;-1.086;2023-10-09T04:05:34;101869.39;;;19.01;92.65
33265;BME280;31404;53.974;-1.086;2023-10-09T04:10:34;101878.61;;;20.42;87.36
33265;BME280;31404;53.974;-1.086;2023-10-09T04:15:34;101900.28;;;20.38;87.57
33265;BME280;31404;53.974;-1.086;2023-10-09T04:20:34;101905.67;;;20.58;85.62
33265;BME280;31404;53.974;-1.086;2023-10-09T04:25:34;101896.24;;;19.91;90.43
33265;BME280;31404;53.974;-1.086;2023-10-09T04:30:34;101891.63;;;20.67;86.50
33265;BME280;31404;53.974;-1.086;2023-10-09T04:35:34;101890.07;;;20.48;87.69
33265;BME280;31404;53.974;-1.086;2023-10-09T04:40:35;101888.62;;;20.19;87.76
33265;BME280;31404;53.974;-1.086;2023-10-09T04:45:36;101905.45;;;20.94;85.37
33265;BME280;31404;53.974;-1.086;2023-10-09T04:50:35;101909.84;;;20.24;88.20
33265;BME280;31404;53.974;-1.086;2023-10-09T04:55:35;101896.18;;;19.66;92.02
33265;BME280;31404;53.974;-1.086;2023-10-09T05:00:35;101895.44;;;20.84;86.68
33265;BME280;31404;53.974;-1.086;2023-10-09T05:05:35;101895.96;;;20.41;88.97
33265;BME280;31404;53.974;-1.086;2023-10-09T05:10:35;101900.53;;;19.29;95.15
33265;BME280;31404;53.974;-1.086;2023-10-09T05:15:35;101912.00;;;19.80;91.98
33265;BME280;31404;53.974;-1.086;2023-10-09T05:20:35;101902.62;;;19.10;96.91
33265;BME280;31404;53.974;-1.086;2023-10-09T05:25:39;101896.35;;;17.07;100.00
33265;BME280;31404;53.974;-1.086;2023-10-09T05:30:35;101911.17;;;15.44;100.00
33265;BME280;31404;53.974;-1.086;2023-10-09T05:35:35;101907.99;;;14.89;100.00
33265;BME280;31404;53.974;-1.086;2023-10-09T05:40:35;101909.00;;;17.32;100.00
33265;BME280;31404;53.974;-1.086;2023-10-09T05:45:35;101904.90;;;16.91;100.00
33265;BME280;31404;53.974;-1.086;2023-10-09T05:50:35;101903.54;;;18.22;100.00
33265;BME280;31404;53.974;-1.086;2023-10-09T05:55:35;101906.99;;;17.83;100.00
33265;BME280;31404;53.974;-1.086;2023-10-09T06:00:35;101920.09;;;18.27;100.00
33265;BME280;31404;53.974;-1.086;2023-10-09T06:05:35;101925.83;;;15.20;100.00
33265;BME280;31404;53.974;-1.086;2023-10-09T06:10:34;101918.54;;;16.77;100.00
33265;BME280;31404;53.974;-1.086;2023-10-09T06:15:37;101928.22;;;15.37;100.00
33265;BME280;31404;53.974;-1.086;2023-10-09T06:20:34;101938.74;;;16.73;100.00
33265;BME280;31404;53.974;-1.086;2023-10-09T06:25:36;101952.20;;;15.12;100.00
33265;BME280;31404;53.974;-1.086;2023-10-09T06:30:35;101960.93;;;16.46;100.00
33265;BME280;31404;53.974;-1.086;2023-10-09T06:35:35;101955.03;;;16.93;100.00
33265;BME280;31404;53.974;-1.086;2023-10-09T06:40:36;101958.30;;;17.47;100.00
33265;BME280;31404;53.974;-1.086;2023-10-09T06:45:35;101956.86;;;17.97;100.00
33265;BME280;31404;53.974;-1.086;2023-10-09T06:50:35;101959.94;;;16.78;100.00
33265;BME280;31404;53.974;-1.086;2023-10-09T06:55:36;101959.64;;;16.17;100.00
33265;BME280;31404;53.974;-1.086;2023-10-09T07:05:35;101952.27;;;15.93;100.00
33265;BME280;31404;53.974;-1.086;2023-10-09T07:10:35;101941.54;;;16.93;100.00
33265;BME280;31404;53.974;-1.086;2023-10-09T07:15:35;101948.94;;;16.15;100.00
33265;BME280;31404;53.974;-1.086;2023-10-09T07:20:35;101955.36;;;15.16;100.00
33265;BME280;31404;53.974;-1.086;2023-10-09T07:25:35;101951.09;;;13.25;100.00
33265;BME280;31404;53.974;-1.086;2023-10-09T07:30:37;101960.96;;;13.62;100.00
33265;BME280;31404;53.974;-1.086;2023-10-09T07:35:35;101965.71;;;13.09;100.00
33265;BME280;31404;53.974;-1.086;2023-10-09T07:40:34;101966.85;;;12.68;100.00
33265;BME280;31404;53.974;-1.086;2023-10-09T07:45:36;101963.02;;;14.10;100.00
33265;BME280;31404;53.974;-1.086;2023-10-09T07:50:36;101972.63;;;14.36;100.00
33265;BME280;31404;53.974;-1.086;2023-10-09T08:00:35;101981.07;;;15.38;100.00
33265;BME280;31404;53.974;-1.086;2023-10-09T08:05:35;101979.39;;;14.93;100.00
33265;BME280;31404;53.974;-1.086;2023-10-09T08:10:38;101972.76;;;15.57;100.00
33265;BME280;31404;53.974;-1.086;2023-10-09T08:15:35;101973.99;;;15.40;100.00
33265;BME280;31404;53.974;-1.086;2023-10-09T08:20:35;102001.06;;;13.99;100.00
33265;BME280;31404;53.974;-1.086;2023-10-09T08:25:34;102004.43;;;14.84;100.00
33265;BME280;31404;53.974;-1.086;2023-10-09T08:30:34;102006.13;;;14.81;100.00
33265;BME280;31404;53.974;-1.086;2023-10-09T08:35:35;102010.24;;;14.54;100.00
33265;BME280;31404;53.974;-1.086;2023-10-09T08:40:36;102011.62;;;14.70;100.00
33265;BME280;31404;53.974;-1.086;2023-10-09T08:45:37;102007.43;;;15.05;100.00
33265;BME280;31404;53.974;-1.086;2023-10-09T08:50:35;102001.59;;;15.71;100.00
33265;BME280;31404;53.974;-1.086;2023-10-09T08:55:37;102010.00;;;16.01;100.00
33265;BME280;31404;53.974;-1.086;2023-10-09T09:00:35;102018.18;;;16.11;100.00
33265;BME280;31404;53.974;-1.086;2023-10-09T09:05:35;102012.06;;;15.31;100.00
33265;BME280;31404;53.974;-1.086;2023-10-09T09:10:35;102019.50;;;16.23;100.00
33265;BME280;31404;53.974;-1.086;2023-10-09T09:15:35;102013.90;;;16.54;100.00
33265;BME280;31404;53.974;-1.086;2023-10-09T09:20:35;102006.13;;;15.44;100.00
33265;BME280;31404;53.974;-1.086;2023-10-09T09:30:34;102007.84;;;16.18;100.00
33265;BME280;31404;53.974;-1.086;2023-10-09T09:35:34;102014.90;;;15.16;100.00
33265;BME280;31404;53.974;-1.086;2023-10-09T09:40:35;102013.38;;;15.47;100.00
33265;BME280;31404;53.974;-1.086;2023-10-09T09:45:35;102018.32;;;15.08;100.00
33265;BME280;31404;53.974;-1.086;2023-10-09T09:50:34;102020.36;;;15.92;100.00
33265;BME280;31404;53.974;-1.086;2023-10-09T10:00:35;102011.15;;;14.46;100.00
33265;BME280;31404;53.974;-1.086;2023-10-09T10:05:35;102009.24;;;16.27;100.00
33265;BME280;31404;53.974;-1.086;2023-10-09T10:10:36;102024.36;;;16.10;100.00
33265;BME280;31404;53.974;-1.086;2023-10-09T10:25:35;102034.07;;;14.99;100.00
33265;BME280;31404;53.974;-1.086;2023-10-09T10:30:34;102045.52;;;14.16;100.00
33265;BME280;31404;53.974;-1.086;2023-10-09T10:35:34;102046.26;;;13.97;100.00
33265;BME280;31404;53.974;-1.086;2023-10-09T10:40:35;102032.01;;;15.55;100.00
33265;BME280;31404;53.974;-1.086;2023-10-09T10:45:35;102031.12;;;16.30;100.00
33265;BME280;31404;53.974;-1.086;2023-10-09T10:50:34;102024.25;;;17.28;100.00
33265;BME280;31404;53.974;-1.086;2023-10-09T10:55:35;102030.52;;;16.67;100.00
33265;BME280;31404;53.974;-1.086;2023-10-09T11:00:35;102030.49;;;17.30;100.00
33265;BME280;31404;53.974;-1.086;2023-10-09T11:05:35;102041.33;;;16.73;100.00
33265;BME280;31404;53.974;-1.086;2023-10-09T11:10:34;102041.43;;;16.96;100.00
33265;BME280;31404;53.974;-1.086;2023-10-09T11:15:35;102033.93;;;17.61;100.00
33265;BME280;31404;53.974;-1.086;2023-10-09T11:20:35;102039.24;;;16.69;100.00
33265;BME280;31404;53.974;-1.086;2023-10-09T11:25:35;102036.50;;;16.98;100.00
33265;BME280;31404;53.974;-1.086;2023-10-09T11:30:35;102031.46;;;17.06;100.00
33265;BME280;31404;53.974;-1.086;2023-10-09T11:35:35;102029.24;;;17.58;100.00
33265;BME280;31404;53.974;-1.086;2023-10-09T11:40:34;102020.48;;;18.36;100.00
33265;BME280;31404;53.974;-1.086;2023-10-09T11:45:31;102026.62;;;17.96;100.00
33265;BME280;31404;53.974;-1.086;2023-10-09T12:00:35;102024.00;;;18.57;100.00
33265;BME280;31404;53.974;-1.086;2023-10-09T12:05:34;102020.18;;;17.82;100.00
33265;BME280;31404;53.974;-1.086;2023-10-09T12:10:34;102022.58;;;17.11;100.00
33265;BME280;31404;53.974;-1.086;2023-10-09T12:15:34;102013.80;;;19.02;100.00
33265;BME280;31404;53.974;-1.086;2023-10-09T12:20:35;102011.61;;;17.98;100.00
33265;BME280;31404;53.974;-1.086;2023-10-09T12:25:35;102009.21;;;18.03;100.00
33265;BME280;31404;53.974;-1.086;2023-10-09T12:30:34;102000.51;;;17.83;100.00
33265;BME280;31404;53.974;-1.086;2023-10-09T12:40:35;101995.94;;;19.29;100.00
33265;BME280;31404;53.974;-1.086;2023-10-09T12:45:35;101988.03;;;19.04;100.00
33265;BME280;31404;53.974;-1.086;2023-10-09T12:50:35;101974.16;;;19.46;100.00
33265;BME280;31404;53.974;-1.086;2023-10-09T12:55:36;101974.29;;;19.86;100.00
33265;BME280;31404;53.974;-1.086;2023-10-09T13:00:36;101967.15;;;19.63;100.00
33265;BME280;31404;53.974;-1.086;2023-10-09T13:05:35;101969.87;;;19.64;100.00
33265;BME280;31404;53.974;-1.086;2023-10-09T13:10:34;101964.03;;;21.95;96.98
33265;BME280;31404;53.974;-1.086;2023-10-09T13:15:34;101967.30;;;20.27;100.00
33265;BME280;31404;53.974;-1.086;2023-10-09T13:20:35;101960.96;;;20.23;100.00
33265;BME280;31404;53.974;-1.086;2023-10-09T13:25:34;101958.60;;;18.79;100.00
33265;BME280;31404;53.974;-1.086;2023-10-09T13:35:36;101939.77;;;20.88;98.23
33265;BME280;31404;53.974;-1.086;2023-10-09T13:40:34;101945.88;;;19.54;100.00
33265;BME280;31404;53.974;-1.086;2023-10-09T13:50:34;101934.90;;;20.19;100.00
33265;BME280;31404;53.974;-1.086;2023-10-09T13:55:37;101925.59;;;20.56;100.00
33265;BME280;31404;53.974;-1.086;2023-10-09T14:00:35;101925.63;;;20.09;100.00
33265;BME280;31404;53.974;-1.086;2023-10-09T14:05:35;101919.11;;;21.47;96.90
33265;BME280;31404;53.974;-1.086;2023-10-09T14:10:37;101923.57;;;21.21;96.40
33265;BME280;31404;53.974;-1.086;2023-10-09T14:15:34;101919.81;;;21.13;98.82
33265;BME280;31404;53.974;-1.086;2023-10-09T14:20:34;101920.30;;;20.44;100.00
33265;BME280;31404;53.974;-1.086;2023-10-09T14:25:34;101927.96;;;20.32;100.00
33265;BME280;31404;53.974;-1.086;2023-10-09T14:30:35;101922.38;;;20.14;100.00
33265;BME280;31404;53.974;-1.086;2023-10-09T14:35:34;101915.62;;;19.01;100.00
33265;BME280;31404;53.974;-1.086;2023-10-09T14:40:34;101914.89;;;19.86;100.00
33265;BME280;31404;53.974;-1.086;2023-10-09T14:45:36;101912.61;;;19.37;100.00
33265;BME280;31404;53.974;-1.086;2023-10-09T14:50:34;101909.92;;;18.95;100.00
33265;BME280;31404;53.974;-1.086;2023-10-09T14:55:34;101915.32;;;19.24;100.00
33265;BME280;31404;53.974;-1.086;2023-10-09T15:00:35;101912.92;;;18.30;100.00
33265;BME280;31404;53.974;-1.086;2023-10-09T15:05:35;101906.90;;;17.98;100.00
33265;BME280;31404;53.974;-1.086;2023-10-09T15:10:34;101898.14;;;17.94;100.00
33265;BME280;31404;53.974;-1.086;2023-10-09T15:15:34;101904.01;;;17.40;100.00
33265;BME280;31404;53.974;-1.086;2023-10-09T15:20:35;101901.54;;;17.29;100.00
33265;BME280;31404;53.974;-1.086;2023-10-09T15:25:35;101892.84;;;18.08;100.00
33265;BME280;31404;53.974;-1.086;2023-10-09T15:30:35;101891.64;;;19.00;100.00
33265;BME280;31404;53.974;-1.086;2023-10-09T15:35:34;101893.25;;;19.28;100.00
33265;BME280;31404;53.974;-1.086;2023-10-09T15:40:34;101886.32;;;19.44;100.00
33265;BME280;31404;53.974;-1.086;2023-10-09T15:50:35;101874.32;;;18.90;100.00
33265;BME280;31404;53.974;-1.086;2023-10-09T15:55:34;101874.71;;;19.35;100.00
33265;BME280;31404;53.974;-1.086;2023-10-09T16:00:34;101875.86;;;19.05;100.00
33265;BME280;31404;53.974;-1.086;2023-10-09T16:05:35;101871.07;;;18.29;100.00
33265;BME280;31404;53.974;-1.086;2023-10-09T16:10:34;101881.69;;;18.48;100.00
33265;BME280;31404;53.974;-1.086;2023-10-09T16:15:34;101879.65;;;19.07;100.00
33265;BME280;31404;53.974;-1.086;2023-10-09T16:20:34;101874.52;;;19.58;100.00
33265;BME280;31404;53.974;-1.086;2023-10-09T16:25:34;101876.16;;;19.38;100.00
33265;BME280;31404;53.974;-1.086;2023-10-09T16:30:35;101876.59;;;19.87;100.00
33265;BME280;31404;53.974;-1.086;2023-10-09T16:35:35;101872.76;;;20.58;99.88
33265;BME280;31404;53.974;-1.086;2023-10-09T16:40:35;101873.08;;;19.63;100.00
33265;BME280;31404;53.974;-1.086;2023-10-09T16:45:36;101869.89;;;18.87;100.00
33265;BME280;31404;53.974;-1.086;2023-10-09T16:50:35;101875.18;;;19.27;100.00
33265;BME280;31404;53.974;-1.086;2023-10-09T16:55:35;101872.59;;;20.59;98.91
33265;BME280;31404;53.974;-1.086;2023-10-09T17:00:34;101867.76;;;20.86;96.46
33265;BME280;31404;53.974;-1.086;2023-10-09T17:05:35;101869.34;;;19.74;100.00
33265;BME280;31404;53.974;-1.086;2023-10-09T17:10:35;101866.76;;;20.52;98.61
33265;BME280;31404;53.974;-1.086;2023-10-09T17:15:34;101862.68;;;20.75;97.98
33265;BME280;31404;53.974;-1.086;2023-10-09T17:25:34;101882.58;;;19.52;100.00
33265;BME280;31404;53.974;-1.086;2023-10-09T17:30:34;101878.00;;;20.92;95.03
33265;BME280;31404;53.974;-1.086;2023-10-09T17:35:34;101885.68;;;19.28;100.00
33265;BME280;31404;53.974;-1.086;2023-10-09T17:40:34;101882.19;;;18.12;100.00
33265;BME280;31404;53.974;-1.086;2023-10-09T17:45:37;101870.68;;;18.07;100.00
33265;BME280;31404;53.974;-1.086;2023-10-09T17:50:35;101863.73;;;17.35;100.00
33265;BME280;31404;53.974;-1.086;2023-10-09T17:55:34;101865.47;;;19.64;100.00
33265;BME280;31404;53.974;-1.086;2023-10-09T18:00:36;101855.89;;;20.88;98.02
33265;BME280;31404;53.974;-1.086;2023-10-09T18:05:35;101861.38;;;19.38;100.00
33265;BME280;31404;53.974;-1.086;2023-10-09T18:10:35;101857.18;;;19.79;100.00
33265;BME280;31404;53.974;-1.086;2023-10-09T18:15:35;101854.19;;;18.87;100.00
33265;BME280;31404;53.974;-1.086;2023-10-09T18:20:34;101851.24;;;19.21;100.00
33265;BME280;31404;53.974;-1.086;2023-10-09T18:25:35;101849.84;;;20.16;98.53
33265;BME280;31404;53.974;-1.086;2023-10-09T18:30:36;101858.78;;;19.05;100.00
33265;BME280;31404;53.974;-1.086;2023-10-09T18:35:34;101857.42;;;19.41;100.00
33265;BME280;31404;53.974;-1.086;2023-10-09T18:40:37;101862.33;;;19.21;100.00
33265;BME280;31404;53.974;-1.086;2023-10-09T18:50:37;101857.84;;;19.28;100.00
33265;BME280;31404;53.974;-1.086;2023-10-09T18:55:35;101844.37;;;19.86;99.59
33265;BME280;31404;53.974;-1.086;2023-10-09T19:00:35;101854.28;;;18.88;100.00
33265;BME280;31404;53.974;-1.086;2023-10-09T19:05:35;101854.81;;;18.55;100.00
33265;BME280;31404;53.974;-1.086;2023-10-09T19:10:34;101845.84;;;20.72;94.16
33265;BME280;31404;53.974;-1.086;2023-10-09T19:15:34;101834.50;;;19.96;97.47
33265;BME280;31404;53.974;-1.086;2023-10-09T19:20:36;101839.19;;;18.77;100.00
33265;BME280;31404;53.974;-1.086;2023-10-09T19:25:35;101848.53;;;17.08;100.00
33265;BME280;31404;53.974;-1.086;2023-10-09T19:30:35;101842.42;;;18.85;100.00
33265;BME280;31404;53.974;-1.086;2023-10-09T19:35:35;101839.99;;;18.73;100.00
33265;BME280;31404;53.974;-1.086;2023-10-09T19:40:35;101827.53;;;18.52;100.00
33265;BME280;31404;53.974;-1.086;2023-10-09T19:45:35;101828.97;;;19.14;100.00
33265;BME280;31404;53.974;-1.086;2023-10-09T19:50:35;101823.29;;;19.41;100.00
33265;BME280;31404;53.974;-1.086;2023-10-09T20:00:33;101821.10;;;19.10;100.00
33265;BME280;31404;53.974;-1.086;2023-10-09T20:10:34;101810.03;;;20.69;92.36
33265;BME280;31404;53.974;-1.086;2023-10-09T20:15:34;101814.74;;;18.77;100.00
33265;BME280;31404;53.974;-1.086;2023-10-09T20:20:37;101811.19;;;18.99;100.00
33265;BME280;31404;53.974;-1.086;2023-10-09T20:25:35;101811.22;;;19.25;100.00
33265;BME280;31404;53.974;-1.086;2023-10-09T20:30:35;101805.12;;;20.22;94.59
33265;BME280;31404;53.974;-1.086;2023-10-09T20:35:36;101813.70;;;19.55;96.78
33265;BME280;31404;53.974;-1.086;2023-10-09T20:50:34;101806.86;;;20.19;94.31
33265;BME280;31404;53.974;-1.086;2023-10-09T20:55:34;101800.24;;;20.78;90.89
33265;BME280;31404;53.974;-1.086;2023-10-09T21:00:34;101800.04;;;20.74;90.05
33265;BME280;31404;53.974;-1.086;2023-10-09T21:05:34;101804.30;;;19.72;93.03
33265;BME280;31404;53.974;-1.086;2023-10-09T21:10:35;101800.10;;;20.11;92.48
33265;BME280;31404;53.974;-1.086;2023-10-09T21:15:36;101801.82;;;20.48;90.24
33265;BME280;31404;53.974;-1.086;2023-10-09T21:20:34;101806.24;;;20.19;91.46
33265;BME280;31404;53.974;-1.086;2023-10-09T21:25:35;101810.12;;;19.37;95.34
33265;BME280;31404;53.974;-1.086;2023-10-09T21:30:35;101798.80;;;19.40;96.53
33265;BME280;31404;53.974;-1.086;2023-10-09T21:35:35;101794.67;;;19.69;96.27
33265;BME280;31404;53.974;-1.086;2023-10-09T21:40:35;101785.69;;;18.03;100.00
33265;BME280;31404;53.974;-1.086;2023-10-09T21:45:37;101786.45;;;18.00;100.00
33265;BME280;31404;53.974;-1.086;2023-10-09T21:50:34;101793.19;;;17.61;100.00
33265;BME280;31404;53.974;-1.086;2023-10-09T21:55:35;101783.75;;;17.90;100.00
33265;BME280;31404;53.974;-1.086;2023-10-09T22:00:35;101778.52;;;16.57;100.00
33265;BME280;31404;53.974;-1.086;2023-10-09T22:05:35;101766.43;;;18.57;100.00
33265;BME280;31404;53.974;-1.086;2023-10-09T22:10:35;101765.39;;;18.62;100.00
33265;BME280;31404;53.974;-1.086;2023-10-09T22:15:35;101758.86;;;18.45;100.00
33265;BME280;31404;53.974;-1.086;2023-10-09T22:20:35;101751.50;;;19.03;100.00
33265;BME280;31404;53.974;-1.086;2023-10-09T22:25:35;101744.23;;;18.24;100.00
33265;BME280;31404;53.974;-1.086;2023-10-09T22:30:36;101735.12;;;18.66;100.00
33265;BME280;31404;53.974;-1.086;2023-10-09T22:35:35;101721.98;;;19.26;100.00
33265;BME280;31404;53.974;-1.086;2023-10-09T22:40:35;101725.95;;;19.26;99.89
33265;BME280;31404;53.974;-1.086;2023-10-09T22:45:34;101715.61;;;19.70;99.75
33265;BME280;31404;53.974;-1.086;2023-10-09T22:50:34;101729.39;;;20.37;95.20
33265;BME280;31404;53.974;-1.086;2023-10-09T22:55:34;101716.72;;;19.94;96.93
33265;BME280;31404;53.974;-1.086;2023-10-09T23:00:35;101709.66;;;19.85;96.30
33265;BME280;31404;53.974;-1.086;2023-10-09T23:05:35;101704.39;;;19.11;100.00
33265;BME280;31404;53.974;-1.086;2023-10-09T23:10:34;101690.48;;;18.59;100.00
33265;BME280;31404;53.974;-1.086;2023-10-09T23:15:34;101689.73;;;19.74;98.24
33265;BME280;31404;53.974;-1.086;2023-10-09T23:20:35;101685.94;;;19.90;96.16
33265;BME280;31404;53.974;-1.086;2023-10-09T23:25:35;101676.49;;;20.00;94.22
33265;BME280;31404;53.974;-1.086;2023-10-09T23:30:34;101670.95;;;20.43;91.99
33265;BME280;31404;53.974;-1.086;2023-10-09T23:35:36;101666.14;;;19.26;96.70
33265;BME280;31404;53.974;-1.086;2023-10-09T23:40:36;101671.44;;;20.44;92.20
33265;BME280;31404;53.974;-1.086;2023-10-09T23:45:35;101673.80;;;20.04;92.72
33265;BME280;31404;53.974;-1.086;2023-10-09T23:50:35;101672.70;;;19.51;94.11
33265;BME280;31404;53.974;-1.086;2023-10-09T23:55:35;101672.11;;;20.11;92.84
